sensor_id;sensor_type;location;lat;lon;timestamp;pressure;altitude;pressure_sealevel;temperature;humidity
6345;BME280;3205;42.666;23.264;2024-03-08T00:00:09;94404.03;;;6.51;100.00
6345;BME280;3205;42.666;23.264;2024-03-08T00:02:37;94411.28;;;6.45;100.00
6345;BME280;3205;42.666;23.264;2024-03-08T00:05:05;94413.44;;;6.43;100.00
6345;BME280;3205;42.666;23.264;2024-03-08T00:07:32;94410.47;;;6.36;100.00
6345;BME280;3205;42.666;23.264;2024-03-08T00:09:58;94410.00;;;6.26;100.00
6345;BME280;3205;42.666;23.264;2024-03-08T00:12:25;94406.34;;;6.44;100.00
6345;BME280;3205;42.666;23.264;2024-03-08T00:14:52;94406.50;;;6.47;100.00
6345;BME280;3205;42.666;23.264;2024-03-08T00:17:20;94408.03;;;6.48;100.00
6345;BME280;3205;42.666;23.264;2024-03-08T00:19:48;94406.63;;;6.34;100.00
6345;BME280;3205;42.666;23.264;2024-03-08T00:22:15;94401.69;;;6.32;100.00
6345;BME280;3205;42.666;23.264;2024-03-08T00:24:42;94405.22;;;6.36;100.00
6345;BME280;3205;42.666;23.264;2024-03-08T00:27:09;94403.19;;;6.25;100.00
6345;BME280;3205;42.666;23.264;2024-03-08T00:29:35;94393.97;;;6.36;100.00
6345;BME280;3205;42.666;23.264;2024-03-08T00:32:04;94398.25;;;6.32;100.00
6345;BME280;3205;42.666;23.264;2024-03-08T00:34:30;94388.69;;;6.27;100.00
6345;BME280;3205;42.666;23.264;2024-03-08T00:36:57;94392.41;;;6.26;100.00
6345;BME280;3205;42.666;23.264;2024-03-08T00:39:24;94387.31;;;6.30;100.00
6345;BME280;3205;42.666;23.264;2024-03-08T00:41:51;94387.91;;;6.18;100.00
6345;BME280;3205;42.666;23.264;2024-03-08T00:44:18;94375.84;;;6.09;100.00
6345;BME280;3205;42.666;23.264;2024-03-08T00:46:44;94386.44;;;6.04;100.00
6345;BME280;3205;42.666;23.264;2024-03-08T00:49:10;94381.50;;;6.02;100.00
6345;BME280;3205;42.666;23.264;2024-03-08T00:51:38;94378.47;;;6.09;100.00
6345;BME280;3205;42.666;23.264;2024-03-08T00:54:05;94382.72;;;5.96;100.00
6345;BME280;3205;42.666;23.264;2024-03-08T00:56:31;94373.16;;;6.00;100.00
6345;BME280;3205;42.666;23.264;2024-03-08T00:59:00;94367.81;;;6.05;100.00
6345;BME280;3205;42.666;23.264;2024-03-08T01:01:26;94368.22;;;5.99;100.00
6345;BME280;3205;42.666;23.264;2024-03-08T01:03:52;94367.88;;;5.92;100.00
6345;BME280;3205;42.666;23.264;2024-03-08T01:06:18;94361.75;;;5.96;100.00
6345;BME280;3205;42.666;23.264;2024-03-08T01:08:45;94354.63;;;5.88;100.00
6345;BME280;3205;42.666;23.264;2024-03-08T01:11:13;94364.50;;;5.91;100.00
6345;BME280;3205;42.666;23.264;2024-03-08T01:13:39;94366.31;;;5.83;100.00
6345;BME280;3205;42.666;23.264;2024-03-08T01:16:07;94363.69;;;5.83;100.00
6345;BME280;3205;42.666;23.264;2024-03-08T01:18:33;94360.16;;;5.79;100.00
6345;BME280;3205;42.666;23.264;2024-03-08T01:21:00;94364.91;;;5.77;100.00
6345;BME280;3205;42.666;23.264;2024-03-08T01:23:26;94363.69;;;5.83;100.00
6345;BME280;3205;42.666;23.264;2024-03-08T01:25:52;94352.91;;;5.84;100.00
6345;BME280;3205;42.666;23.264;2024-03-08T01:28:23;94344.25;;;5.84;100.00
6345;BME280;3205;42.666;23.264;2024-03-08T01:30:49;94353.50;;;5.81;100.00
6345;BME280;3205;42.666;23.264;2024-03-08T01:33:22;94352.00;;;5.88;100.00
6345;BME280;3205;42.666;23.264;2024-03-08T01:35:48;94357.72;;;5.90;100.00
6345;BME280;3205;42.666;23.264;2024-03-08T01:38:14;94351.22;;;5.88;100.00
6345;BME280;3205;42.666;23.264;2024-03-08T01:40:41;94345.66;;;5.81;100.00
6345;BME280;3205;42.666;23.264;2024-03-08T01:43:20;94348.13;;;5.86;100.00
6345;BME280;3205;42.666;23.264;2024-03-08T01:45:46;94341.94;;;5.82;100.00
6345;BME280;3205;42.666;23.264;2024-03-08T01:48:13;94350.59;;;5.83;100.00
6345;BME280;3205;42.666;23.264;2024-03-08T01:50:41;94347.03;;;5.79;100.00
6345;BME280;3205;42.666;23.264;2024-03-08T01:53:08;94352.63;;;5.86;100.00
6345;BME280;3205;42.666;23.264;2024-03-08T01:55:37;94347.97;;;5.83;100.00
6345;BME280;3205;42.666;23.264;2024-03-08T01:58:04;94352.13;;;5.84;100.00
6345;BME280;3205;42.666;23.264;2024-03-08T02:00:31;94345.03;;;5.84;100.00
6345;BME280;3205;42.666;23.264;2024-03-08T02:02:58;94338.53;;;5.82;100.00
6345;BME280;3205;42.666;23.264;2024-03-08T02:05:25;94335.63;;;5.83;100.00
6345;BME280;3205;42.666;23.264;2024-03-08T02:07:52;94334.88;;;5.91;100.00
6345;BME280;3205;42.666;23.264;2024-03-08T02:10:19;94333.03;;;5.91;100.00
6345;BME280;3205;42.666;23.264;2024-03-08T02:12:46;94343.06;;;5.98;100.00
6345;BME280;3205;42.666;23.264;2024-03-08T02:15:13;94339.34;;;5.90;100.00
6345;BME280;3205;42.666;23.264;2024-03-08T02:17:40;94340.59;;;5.93;100.00
6345;BME280;3205;42.666;23.264;2024-03-08T02:20:08;94345.09;;;6.01;100.00
6345;BME280;3205;42.666;23.264;2024-03-08T02:22:37;94349.88;;;6.07;100.00
6345;BME280;3205;42.666;23.264;2024-03-08T02:25:04;94349.59;;;6.09;100.00
6345;BME280;3205;42.666;23.264;2024-03-08T02:27:31;94354.69;;;6.05;100.00
6345;BME280;3205;42.666;23.264;2024-03-08T02:29:57;94355.19;;;6.24;100.00
6345;BME280;3205;42.666;23.264;2024-03-08T02:32:23;94349.59;;;6.17;100.00
6345;BME280;3205;42.666;23.264;2024-03-08T02:34:50;94350.03;;;6.11;100.00
6345;BME280;3205;42.666;23.264;2024-03-08T02:37:16;94352.38;;;6.12;100.00
6345;BME280;3205;42.666;23.264;2024-03-08T02:39:43;94356.41;;;6.18;100.00
6345;BME280;3205;42.666;23.264;2024-03-08T02:42:10;94358.72;;;6.20;100.00
6345;BME280;3205;42.666;23.264;2024-03-08T02:44:38;94356.41;;;6.18;100.00
6345;BME280;3205;42.666;23.264;2024-03-08T02:47:04;94361.19;;;6.25;100.00
6345;BME280;3205;42.666;23.264;2024-03-08T02:49:31;94357.16;;;6.19;100.00
6345;BME280;3205;42.666;23.264;2024-03-08T02:51:57;94356.09;;;6.11;100.00
6345;BME280;3205;42.666;23.264;2024-03-08T02:54:24;94362.41;;;6.10;100.00
6345;BME280;3205;42.666;23.264;2024-03-08T02:56:51;94361.97;;;6.17;100.00
6345;BME280;3205;42.666;23.264;2024-03-08T02:59:17;94354.53;;;6.10;100.00
6345;BME280;3205;42.666;23.264;2024-03-08T03:05:07;94359.94;;;6.14;100.00
6345;BME280;3205;42.666;23.264;2024-03-08T03:07:35;94359.78;;;6.19;100.00
6345;BME280;3205;42.666;23.264;2024-03-08T03:10:01;94372.31;;;6.22;100.00
6345;BME280;3205;42.666;23.264;2024-03-08T03:12:29;94370.75;;;6.12;100.00
6345;BME280;3205;42.666;23.264;2024-03-08T03:14:56;94368.25;;;6.07;100.00
6345;BME280;3205;42.666;23.264;2024-03-08T03:17:22;94372.72;;;5.98;100.00
6345;BME280;3205;42.666;23.264;2024-03-08T03:19:48;94370.81;;;5.90;100.00
6345;BME280;3205;42.666;23.264;2024-03-08T03:22:15;94370.03;;;5.90;100.00
6345;BME280;3205;42.666;23.264;2024-03-08T03:24:41;94371.41;;;5.88;100.00
6345;BME280;3205;42.666;23.264;2024-03-08T03:27:08;94373.13;;;5.84;100.00
6345;BME280;3205;42.666;23.264;2024-03-08T03:29:37;94370.84;;;5.99;100.00
6345;BME280;3205;42.666;23.264;2024-03-08T03:32:03;94386.56;;;5.90;100.00
6345;BME280;3205;42.666;23.264;2024-03-08T03:34:30;94389.06;;;6.04;100.00
6345;BME280;3205;42.666;23.264;2024-03-08T03:36:56;94386.00;;;6.02;100.00
6345;BME280;3205;42.666;23.264;2024-03-08T03:39:23;94393.69;;;5.98;100.00
6345;BME280;3205;42.666;23.264;2024-03-08T03:41:49;94391.03;;;5.90;100.00
6345;BME280;3205;42.666;23.264;2024-03-08T03:44:17;94396.59;;;5.97;100.00
6345;BME280;3205;42.666;23.264;2024-03-08T03:46:47;94403.88;;;6.00;100.00
6345;BME280;3205;42.666;23.264;2024-03-08T03:49:13;94407.56;;;5.90;100.00
6345;BME280;3205;42.666;23.264;2024-03-08T03:51:40;94408.94;;;5.88;100.00
6345;BME280;3205;42.666;23.264;2024-03-08T03:54:06;94405.41;;;5.92;100.00
6345;BME280;3205;42.666;23.264;2024-03-08T03:56:33;94419.16;;;5.98;100.00
6345;BME280;3205;42.666;23.264;2024-03-08T03:58:59;94415.41;;;5.90;100.00
6345;BME280;3205;42.666;23.264;2024-03-08T04:01:25;94427.81;;;5.98;100.00
6345;BME280;3205;42.666;23.264;2024-03-08T04:03:52;94423.16;;;5.95;100.00
6345;BME280;3205;42.666;23.264;2024-03-08T04:06:18;94426.81;;;5.86;100.00
6345;BME280;3205;42.666;23.264;2024-03-08T04:08:45;94430.16;;;5.78;100.00
6345;BME280;3205;42.666;23.264;2024-03-08T04:11:11;94423.94;;;5.74;100.00
6345;BME280;3205;42.666;23.264;2024-03-08T04:13:38;94430.41;;;5.68;100.00
6345;BME280;3205;42.666;23.264;2024-03-08T04:16:05;94426.16;;;5.81;100.00
6345;BME280;3205;42.666;23.264;2024-03-08T04:18:33;94433.97;;;5.72;100.00
6345;BME280;3205;42.666;23.264;2024-03-08T04:21:02;94436.75;;;5.76;100.00
6345;BME280;3205;42.666;23.264;2024-03-08T04:23:28;94428.88;;;5.76;100.00
6345;BME280;3205;42.666;23.264;2024-03-08T04:25:54;94444.13;;;5.74;100.00
6345;BME280;3205;42.666;23.264;2024-03-08T04:28:20;94441.53;;;5.74;100.00
6345;BME280;3205;42.666;23.264;2024-03-08T04:30:47;94433.19;;;5.72;100.00
6345;BME280;3205;42.666;23.264;2024-03-08T04:33:13;94446.47;;;5.75;100.00
6345;BME280;3205;42.666;23.264;2024-03-08T04:35:42;94454.63;;;5.74;100.00
6345;BME280;3205;42.666;23.264;2024-03-08T04:38:12;94454.19;;;5.72;100.00
6345;BME280;3205;42.666;23.264;2024-03-08T04:40:38;94458.00;;;5.66;100.00
6345;BME280;3205;42.666;23.264;2024-03-08T04:43:05;94452.28;;;5.64;100.00
6345;BME280;3205;42.666;23.264;2024-03-08T04:45:31;94455.84;;;5.68;100.00
6345;BME280;3205;42.666;23.264;2024-03-08T04:47:58;94454.72;;;5.60;100.00
6345;BME280;3205;42.666;23.264;2024-03-08T04:50:24;94452.84;;;5.61;100.00
6345;BME280;3205;42.666;23.264;2024-03-08T04:52:50;94451.13;;;5.56;100.00
6345;BME280;3205;42.666;23.264;2024-03-08T04:55:17;94457.66;;;5.59;100.00
6345;BME280;3205;42.666;23.264;2024-03-08T04:57:46;94448.94;;;5.50;100.00
6345;BME280;3205;42.666;23.264;2024-03-08T05:00:13;94459.91;;;5.52;100.00
6345;BME280;3205;42.666;23.264;2024-03-08T05:02:40;94457.88;;;5.49;100.00
6345;BME280;3205;42.666;23.264;2024-03-08T05:05:07;94458.50;;;5.46;100.00
6345;BME280;3205;42.666;23.264;2024-03-08T05:07:34;94463.72;;;5.46;100.00
6345;BME280;3205;42.666;23.264;2024-03-08T05:10:01;94461.69;;;5.43;100.00
6345;BME280;3205;42.666;23.264;2024-03-08T05:12:28;94460.50;;;5.49;100.00
6345;BME280;3205;42.666;23.264;2024-03-08T05:14:54;94467.25;;;5.41;100.00
6345;BME280;3205;42.666;23.264;2024-03-08T05:17:21;94469.44;;;5.48;100.00
6345;BME280;3205;42.666;23.264;2024-03-08T05:19:49;94466.00;;;5.39;100.00
6345;BME280;3205;42.666;23.264;2024-03-08T05:22:15;94475.38;;;5.40;100.00
6345;BME280;3205;42.666;23.264;2024-03-08T05:24:42;94477.91;;;5.45;100.00
6345;BME280;3205;42.666;23.264;2024-03-08T05:27:08;94483.78;;;5.50;100.00
6345;BME280;3205;42.666;23.264;2024-03-08T05:29:35;94484.84;;;5.49;100.00
6345;BME280;3205;42.666;23.264;2024-03-08T05:32:01;94493.03;;;5.48;100.00
6345;BME280;3205;42.666;23.264;2024-03-08T05:34:31;94493.19;;;5.51;100.00
6345;BME280;3205;42.666;23.264;2024-03-08T05:36:58;94499.81;;;5.49;100.00
6345;BME280;3205;42.666;23.264;2024-03-08T05:39:25;94504.47;;;5.52;100.00
6345;BME280;3205;42.666;23.264;2024-03-08T05:41:52;94508.56;;;5.44;100.00
6345;BME280;3205;42.666;23.264;2024-03-08T05:44:18;94505.41;;;5.56;100.00
6345;BME280;3205;42.666;23.264;2024-03-08T05:46:45;94512.56;;;5.64;100.00
6345;BME280;3205;42.666;23.264;2024-03-08T05:49:12;94518.88;;;5.41;100.00
6345;BME280;3205;42.666;23.264;2024-03-08T05:51:39;94513.88;;;5.53;100.00
6345;BME280;3205;42.666;23.264;2024-03-08T05:54:07;94521.28;;;5.51;100.00
6345;BME280;3205;42.666;23.264;2024-03-08T05:56:35;94522.53;;;5.53;100.00
6345;BME280;3205;42.666;23.264;2024-03-08T05:59:02;94524.78;;;5.46;100.00
6345;BME280;3205;42.666;23.264;2024-03-08T06:01:29;94524.13;;;5.41;100.00
6345;BME280;3205;42.666;23.264;2024-03-08T06:03:57;94531.63;;;5.56;100.00
6345;BME280;3205;42.666;23.264;2024-03-08T06:06:24;94529.06;;;5.64;100.00
6345;BME280;3205;42.666;23.264;2024-03-08T06:08:51;94538.97;;;5.67;100.00
6345;BME280;3205;42.666;23.264;2024-03-08T06:11:18;94544.63;;;5.61;100.00
6345;BME280;3205;42.666;23.264;2024-03-08T06:13:44;94544.06;;;5.50;100.00
6345;BME280;3205;42.666;23.264;2024-03-08T06:16:11;94539.63;;;5.51;100.00
6345;BME280;3205;42.666;23.264;2024-03-08T06:18:39;94539.50;;;5.56;100.00
6345;BME280;3205;42.666;23.264;2024-03-08T06:21:08;94542.78;;;5.61;100.00
6345;BME280;3205;42.666;23.264;2024-03-08T06:23:35;94538.63;;;5.60;100.00
6345;BME280;3205;42.666;23.264;2024-03-08T06:26:04;94547.34;;;5.69;100.00
6345;BME280;3205;42.666;23.264;2024-03-08T06:28:30;94540.09;;;5.75;100.00
6345;BME280;3205;42.666;23.264;2024-03-08T06:30:58;94543.72;;;5.79;100.00
6345;BME280;3205;42.666;23.264;2024-03-08T06:33:24;94546.09;;;5.88;100.00
6345;BME280;3205;42.666;23.264;2024-03-08T06:35:52;94544.28;;;5.76;100.00
6345;BME280;3205;42.666;23.264;2024-03-08T06:38:18;94548.53;;;5.85;100.00
6345;BME280;3205;42.666;23.264;2024-03-08T06:40:46;94544.97;;;5.68;100.00
6345;BME280;3205;42.666;23.264;2024-03-08T06:43:13;94551.41;;;5.62;100.00
6345;BME280;3205;42.666;23.264;2024-03-08T06:45:41;94553.16;;;5.66;100.00
6345;BME280;3205;42.666;23.264;2024-03-08T06:48:08;94556.44;;;5.72;100.00
6345;BME280;3205;42.666;23.264;2024-03-08T06:50:35;94560.72;;;5.81;100.00
6345;BME280;3205;42.666;23.264;2024-03-08T06:53:02;94563.88;;;5.91;100.00
6345;BME280;3205;42.666;23.264;2024-03-08T06:55:29;94558.50;;;5.96;100.00
6345;BME280;3205;42.666;23.264;2024-03-08T06:57:55;94561.44;;;5.95;100.00
6345;BME280;3205;42.666;23.264;2024-03-08T07:00:22;94566.84;;;5.98;100.00
6345;BME280;3205;42.666;23.264;2024-03-08T07:02:52;94567.19;;;6.05;100.00
6345;BME280;3205;42.666;23.264;2024-03-08T07:05:19;94569.56;;;6.15;100.00
6345;BME280;3205;42.666;23.264;2024-03-08T07:07:45;94565.72;;;6.21;100.00
6345;BME280;3205;42.666;23.264;2024-03-08T07:10:14;94571.13;;;6.16;100.00
6345;BME280;3205;42.666;23.264;2024-03-08T07:12:41;94567.56;;;6.12;100.00
6345;BME280;3205;42.666;23.264;2024-03-08T07:15:08;94573.88;;;5.89;100.00
6345;BME280;3205;42.666;23.264;2024-03-08T07:17:42;94568.84;;;6.01;100.00
6345;BME280;3205;42.666;23.264;2024-03-08T07:20:11;94575.44;;;6.12;100.00
6345;BME280;3205;42.666;23.264;2024-03-08T07:22:38;94576.63;;;6.06;100.00
6345;BME280;3205;42.666;23.264;2024-03-08T07:25:05;94589.97;;;6.18;100.00
6345;BME280;3205;42.666;23.264;2024-03-08T07:27:46;94586.50;;;6.31;100.00
6345;BME280;3205;42.666;23.264;2024-03-08T07:30:13;94591.97;;;6.43;100.00
6345;BME280;3205;42.666;23.264;2024-03-08T07:32:59;94587.88;;;6.59;100.00
6345;BME280;3205;42.666;23.264;2024-03-08T07:35:27;94593.63;;;6.69;100.00
6345;BME280;3205;42.666;23.264;2024-03-08T07:37:54;94591.81;;;6.78;100.00
6345;BME280;3205;42.666;23.264;2024-03-08T07:40:20;94593.34;;;6.71;100.00
6345;BME280;3205;42.666;23.264;2024-03-08T07:42:48;94595.09;;;6.84;100.00
6345;BME280;3205;42.666;23.264;2024-03-08T07:45:14;94596.84;;;6.66;100.00
6345;BME280;3205;42.666;23.264;2024-03-08T07:47:41;94594.69;;;6.60;100.00
6345;BME280;3205;42.666;23.264;2024-03-08T07:50:08;94596.69;;;6.63;100.00
6345;BME280;3205;42.666;23.264;2024-03-08T07:52:34;94592.94;;;6.86;100.00
6345;BME280;3205;42.666;23.264;2024-03-08T07:55:01;94598.53;;;7.01;100.00
6345;BME280;3205;42.666;23.264;2024-03-08T07:57:29;94604.09;;;6.91;100.00
6345;BME280;3205;42.666;23.264;2024-03-08T07:59:56;94596.84;;;7.05;100.00
6345;BME280;3205;42.666;23.264;2024-03-08T08:02:22;94594.13;;;7.19;100.00
6345;BME280;3205;42.666;23.264;2024-03-08T08:04:48;94597.38;;;7.33;100.00
6345;BME280;3205;42.666;23.264;2024-03-08T08:07:15;94593.06;;;7.36;100.00
6345;BME280;3205;42.666;23.264;2024-03-08T08:09:41;94594.22;;;7.69;100.00
6345;BME280;3205;42.666;23.264;2024-03-08T08:12:08;94600.09;;;7.92;100.00
6345;BME280;3205;42.666;23.264;2024-03-08T08:14:37;94604.53;;;7.49;100.00
6345;BME280;3205;42.666;23.264;2024-03-08T08:17:04;94593.25;;;7.65;100.00
6345;BME280;3205;42.666;23.264;2024-03-08T08:19:31;94599.44;;;7.86;100.00
6345;BME280;3205;42.666;23.264;2024-03-08T08:21:58;94600.25;;;7.95;100.00
6345;BME280;3205;42.666;23.264;2024-03-08T08:24:24;94596.38;;;8.01;100.00
6345;BME280;3205;42.666;23.264;2024-03-08T08:26:52;94603.00;;;8.07;100.00
6345;BME280;3205;42.666;23.264;2024-03-08T08:29:18;94603.91;;;8.45;100.00
6345;BME280;3205;42.666;23.264;2024-03-08T08:31:46;94601.81;;;8.76;100.00
6345;BME280;3205;42.666;23.264;2024-03-08T08:34:13;94603.34;;;8.85;100.00
6345;BME280;3205;42.666;23.264;2024-03-08T08:36:39;94599.75;;;8.89;100.00
6345;BME280;3205;42.666;23.264;2024-03-08T08:39:06;94596.78;;;9.28;100.00
6345;BME280;3205;42.666;23.264;2024-03-08T08:41:38;94595.44;;;9.92;100.00
6345;BME280;3205;42.666;23.264;2024-03-08T08:44:04;94591.28;;;10.43;100.00
6345;BME280;3205;42.666;23.264;2024-03-08T08:46:35;94595.44;;;10.33;100.00
6345;BME280;3205;42.666;23.264;2024-03-08T08:49:03;94593.13;;;10.11;100.00
6345;BME280;3205;42.666;23.264;2024-03-08T08:51:30;94595.72;;;10.31;100.00
6345;BME280;3205;42.666;23.264;2024-03-08T08:53:59;94588.94;;;10.30;100.00
6345;BME280;3205;42.666;23.264;2024-03-08T08:56:25;94597.72;;;10.54;100.00
6345;BME280;3205;42.666;23.264;2024-03-08T08:58:51;94592.00;;;10.76;100.00
6345;BME280;3205;42.666;23.264;2024-03-08T09:01:18;94595.22;;;10.82;100.00
6345;BME280;3205;42.666;23.264;2024-03-08T09:03:45;94591.84;;;11.17;100.00
6345;BME280;3205;42.666;23.264;2024-03-08T09:06:12;94595.81;;;11.47;100.00
6345;BME280;3205;42.666;23.264;2024-03-08T09:08:39;94593.72;;;11.64;100.00
6345;BME280;3205;42.666;23.264;2024-03-08T09:11:06;94601.75;;;11.44;100.00
6345;BME280;3205;42.666;23.264;2024-03-08T09:13:32;94588.16;;;11.93;100.00
6345;BME280;3205;42.666;23.264;2024-03-08T09:15:59;94597.38;;;12.38;100.00
6345;BME280;3205;42.666;23.264;2024-03-08T09:18:25;94599.13;;;12.19;100.00
6345;BME280;3205;42.666;23.264;2024-03-08T09:20:52;94595.50;;;11.72;100.00
6345;BME280;3205;42.666;23.264;2024-03-08T09:23:20;94594.28;;;11.58;100.00
6345;BME280;3205;42.666;23.264;2024-03-08T09:25:47;94592.06;;;11.60;100.00
6345;BME280;3205;42.666;23.264;2024-03-08T09:28:13;94594.56;;;11.92;100.00
6345;BME280;3205;42.666;23.264;2024-03-08T09:30:40;94601.25;;;12.01;100.00
6345;BME280;3205;42.666;23.264;2024-03-08T09:33:06;94602.56;;;12.35;100.00
6345;BME280;3205;42.666;23.264;2024-03-08T09:35:33;94597.66;;;12.76;100.00
6345;BME280;3205;42.666;23.264;2024-03-08T09:37:59;94595.00;;;12.76;100.00
6345;BME280;3205;42.666;23.264;2024-03-08T09:40:26;94599.81;;;12.43;100.00
6345;BME280;3205;42.666;23.264;2024-03-08T09:42:53;94595.75;;;12.34;100.00
6345;BME280;3205;42.666;23.264;2024-03-08T09:45:21;94603.25;;;12.59;100.00
6345;BME280;3205;42.666;23.264;2024-03-08T09:47:48;94606.00;;;12.90;100.00
6345;BME280;3205;42.666;23.264;2024-03-08T09:50:14;94600.03;;;12.65;100.00
6345;BME280;3205;42.666;23.264;2024-03-08T09:52:47;94601.56;;;11.49;100.00
6345;BME280;3205;42.666;23.264;2024-03-08T09:55:15;94599.56;;;11.70;100.00
6345;BME280;3205;42.666;23.264;2024-03-08T09:57:43;94601.56;;;12.12;100.00
6345;BME280;3205;42.666;23.264;2024-03-08T10:00:32;94597.09;;;13.29;100.00
6345;BME280;3205;42.666;23.264;2024-03-08T10:03:01;94592.44;;;14.25;92.22
6345;BME280;3205;42.666;23.264;2024-03-08T10:05:27;94587.97;;;15.11;81.99
6345;BME280;3205;42.666;23.264;2024-03-08T10:07:53;94594.25;;;15.67;80.72
6345;BME280;3205;42.666;23.264;2024-03-08T10:10:20;94593.06;;;15.90;78.81
6345;BME280;3205;42.666;23.264;2024-03-08T10:12:49;94596.44;;;15.87;79.92
6345;BME280;3205;42.666;23.264;2024-03-08T10:15:16;94588.06;;;15.37;81.53
6345;BME280;3205;42.666;23.264;2024-03-08T10:17:44;94594.66;;;14.80;80.40
6345;BME280;3205;42.666;23.264;2024-03-08T10:20:14;94590.53;;;13.72;87.06
6345;BME280;3205;42.666;23.264;2024-03-08T10:22:40;94592.56;;;12.98;93.70
6345;BME280;3205;42.666;23.264;2024-03-08T10:25:09;94596.50;;;12.07;98.81
6345;BME280;3205;42.666;23.264;2024-03-08T10:27:36;94597.34;;;11.48;100.00
6345;BME280;3205;42.666;23.264;2024-03-08T10:30:04;94591.88;;;11.53;100.00
6345;BME280;3205;42.666;23.264;2024-03-08T10:32:32;94592.28;;;11.19;100.00
6345;BME280;3205;42.666;23.264;2024-03-08T10:34:59;94591.88;;;11.53;100.00
6345;BME280;3205;42.666;23.264;2024-03-08T10:37:26;94589.81;;;11.85;100.00
6345;BME280;3205;42.666;23.264;2024-03-08T10:40:02;94581.72;;;11.55;100.00
6345;BME280;3205;42.666;23.264;2024-03-08T10:42:40;94578.19;;;11.15;100.00
6345;BME280;3205;42.666;23.264;2024-03-08T10:45:18;94577.28;;;11.23;100.00
6345;BME280;3205;42.666;23.264;2024-03-08T10:47:49;94575.41;;;11.47;100.00
6345;BME280;3205;42.666;23.264;2024-03-08T10:50:20;94571.78;;;11.52;100.00
6345;BME280;3205;42.666;23.264;2024-03-08T10:52:49;94571.31;;;11.74;100.00
6345;BME280;3205;42.666;23.264;2024-03-08T10:55:16;94568.28;;;11.87;100.00
6345;BME280;3205;42.666;23.264;2024-03-08T10:57:43;94575.03;;;11.96;100.00
6345;BME280;3205;42.666;23.264;2024-03-08T11:00:10;94576.56;;;11.85;100.00
6345;BME280;3205;42.666;23.264;2024-03-08T11:02:38;94568.53;;;11.82;100.00
6345;BME280;3205;42.666;23.264;2024-03-08T11:05:04;94565.53;;;11.83;97.74
6345;BME280;3205;42.666;23.264;2024-03-08T11:07:41;94558.25;;;12.20;92.39
6345;BME280;3205;42.666;23.264;2024-03-08T11:10:19;94551.19;;;12.39;91.03
6345;BME280;3205;42.666;23.264;2024-03-08T11:12:45;94552.94;;;12.47;97.15
6345;BME280;3205;42.666;23.264;2024-03-08T11:15:14;94543.53;;;12.50;93.13
6345;BME280;3205;42.666;23.264;2024-03-08T11:17:45;94540.75;;;12.73;92.40
6345;BME280;3205;42.666;23.264;2024-03-08T11:20:12;94549.94;;;12.49;88.13
6345;BME280;3205;42.666;23.264;2024-03-08T11:22:42;94541.25;;;12.79;87.90
6345;BME280;3205;42.666;23.264;2024-03-08T11:25:32;94545.59;;;12.56;86.95
6345;BME280;3205;42.666;23.264;2024-03-08T11:28:13;94535.81;;;12.29;92.74
6345;BME280;3205;42.666;23.264;2024-03-08T11:30:43;94540.22;;;11.47;97.34
6345;BME280;3205;42.666;23.264;2024-03-08T11:33:12;94535.16;;;10.82;100.00
6345;BME280;3205;42.666;23.264;2024-03-08T11:35:38;94533.38;;;10.62;100.00
6345;BME280;3205;42.666;23.264;2024-03-08T11:38:07;94524.06;;;10.77;100.00
6345;BME280;3205;42.666;23.264;2024-03-08T11:40:34;94528.00;;;11.07;100.00
6345;BME280;3205;42.666;23.264;2024-03-08T11:43:01;94527.22;;;11.42;100.00
6345;BME280;3205;42.666;23.264;2024-03-08T11:45:29;94517.50;;;11.70;100.00
6345;BME280;3205;42.666;23.264;2024-03-08T11:47:55;94528.50;;;11.72;100.00
6345;BME280;3205;42.666;23.264;2024-03-08T11:50:22;94527.22;;;11.42;100.00
6345;BME280;3205;42.666;23.264;2024-03-08T11:52:49;94520.53;;;11.32;100.00
6345;BME280;3205;42.666;23.264;2024-03-08T11:55:16;94522.38;;;11.32;100.00
6345;BME280;3205;42.666;23.264;2024-03-08T11:57:44;94524.81;;;10.89;100.00
6345;BME280;3205;42.666;23.264;2024-03-08T12:00:15;94521.53;;;10.80;100.00
6345;BME280;3205;42.666;23.264;2024-03-08T12:03:01;94519.84;;;11.00;100.00
6345;BME280;3205;42.666;23.264;2024-03-08T12:05:27;94520.94;;;10.99;100.00
6345;BME280;3205;42.666;23.264;2024-03-08T12:07:56;94520.75;;;11.15;100.00
6345;BME280;3205;42.666;23.264;2024-03-08T12:10:24;94521.97;;;10.94;100.00
6345;BME280;3205;42.666;23.264;2024-03-08T12:12:52;94519.88;;;10.88;100.00
6345;BME280;3205;42.666;23.264;2024-03-08T12:15:19;94515.13;;;10.81;100.00
6345;BME280;3205;42.666;23.264;2024-03-08T12:17:49;94522.16;;;10.89;100.00
6345;BME280;3205;42.666;23.264;2024-03-08T12:20:16;94521.28;;;10.85;100.00
6345;BME280;3205;42.666;23.264;2024-03-08T12:22:43;94513.03;;;10.75;100.00
6345;BME280;3205;42.666;23.264;2024-03-08T12:25:11;94513.47;;;10.77;100.00
6345;BME280;3205;42.666;23.264;2024-03-08T12:27:39;94504.97;;;10.47;100.00
6345;BME280;3205;42.666;23.264;2024-03-08T12:30:19;94505.84;;;10.39;100.00
6345;BME280;3205;42.666;23.264;2024-03-08T12:32:49;94514.78;;;10.15;100.00
6345;BME280;3205;42.666;23.264;2024-03-08T12:35:16;94503.66;;;10.09;100.00
6345;BME280;3205;42.666;23.264;2024-03-08T12:37:42;94497.19;;;10.19;100.00
6345;BME280;3205;42.666;23.264;2024-03-08T12:40:09;94496.75;;;10.17;100.00
6345;BME280;3205;42.666;23.264;2024-03-08T12:42:36;94488.47;;;10.06;100.00
6345;BME280;3205;42.666;23.264;2024-03-08T12:45:05;94491.66;;;10.00;100.00
6345;BME280;3205;42.666;23.264;2024-03-08T12:47:35;94496.25;;;10.03;100.00
6345;BME280;3205;42.666;23.264;2024-03-08T12:50:01;94493.94;;;9.81;100.00
6345;BME280;3205;42.666;23.264;2024-03-08T12:52:29;94491.53;;;9.56;100.00
6345;BME280;3205;42.666;23.264;2024-03-08T12:54:55;94480.53;;;9.54;100.00
6345;BME280;3205;42.666;23.264;2024-03-08T12:57:22;94482.84;;;9.55;100.00
6345;BME280;3205;42.666;23.264;2024-03-08T12:59:50;94478.34;;;9.56;100.00
6345;BME280;3205;42.666;23.264;2024-03-08T13:02:20;94491.41;;;9.52;100.00
6345;BME280;3205;42.666;23.264;2024-03-08T13:04:46;94489.47;;;9.61;100.00
6345;BME280;3205;42.666;23.264;2024-03-08T13:07:21;94484.66;;;9.63;100.00
6345;BME280;3205;42.666;23.264;2024-03-08T13:09:49;94479.00;;;9.53;100.00
6345;BME280;3205;42.666;23.264;2024-03-08T13:12:15;94480.75;;;9.49;100.00